Aeroboteco Virtual Airlines! Uma nuvem a frente.



 INFORMAÇÕES METEOROLÓGICAS
METAR FOR GVBA
ADDS - METARS form results

(0514 UTC 19 June 2019)
Data provider http://aviationweather.gov/metar/data/
 
Forecast for: GVBA (RABIL AIRPORT , CV)
Text: TAF GVBA 182300Z 1900/2006 02018KT 9999 SCT015
Forecast period: 0000 UTC 19 June 2019 to 0600 UTC 20 June 2019
Forecast type: FROM: standard forecast or significant change
Winds: from the NNE (20 degrees) at 21 MPH (18 knots; 9.3 m/s)
Visibility: 6 or more miles 10+ km)
Ceiling: at least 12,000 feet AGL
Clouds: scattered clouds at 1500 feet AGL
Weather: no significant weather forecast for this period
Text: PROB30
Forecast period: 0100 to 0700 UTC 19 June 2019
Forecast type: TEMPORARY: The following changes expected for less than half the time period
Visibility: 5 miles (8 km)
Ceiling: 1500 feet AGL
Clouds: broken clouds at 1500 feet AGL
Weather: no significant weather forecast for this period

 MAPA DO AEROPORTO

 INFORMAÇÕES DA PISTA
Pista 03 Tamanho da pista 4007 ft Largura da pista 98 ft
Elevação da pista 69 ft Ranhura da pista 0 ft Proa da pista 16
Pista 21 Tamanho da pista 4007 ft Largura da pista 98 ft
Elevação da pista 69 ft Ranhura da pista 0 ft Proa da pista 196

 FREQUÊNCIAS DO AEROPORTO

 AUXÍLIOS DE NAVEGAÇÃO PRÓXIMOS AO AEROPORTO
Tipo NDB Nome Rabil Frequência 341 KHZ